• Join FlightAware (Why Join?)
  • Login
  • US Flag 
01:54PM EDT


 

Airport Tracker/Info


-or-


 

Live Flight TrackerFlight Track Log ✈ N779NC ✈ 08-Jul-2013 ✈ KATL - KHSV

Flight Track Log - Related Links

Times and Time Zones

All times are in EDT time to prevent confusion due to time zone crossing. See the N779NC flight status page for this flight to view local times or setup timezone preferences in your user account.

Time Position Orientation Groundspeed Altitude Reporting Facility
EDT Latitude Longitude Course Direction KTS MPH feet Rate Location/Type
11:09AM 33.6500 -84.4667 292° West 168 193 2,500  Level Atlanta TRACON
11:10AM 33.6833 -84.5667 292° West 275 316 4,600 2,340 Climbing Atlanta TRACON
11:11AM 33.7000 -84.6500 284° West 276 318 7,500 1,920 Climbing Atlanta TRACON
11:13AM 33.6786 -84.8750 264° West 311 358 11,100 1,680 Climbing Atlanta Center
11:14AM 33.6861 -84.9925 274° West 336 387 13,200 1,920 Climbing Atlanta Center
11:15AM 33.7083 -85.1075 283° West 355 409 15,000 1,800 Climbing Atlanta Center
11:16AM 33.7300 -85.2278 282° West 360 414 16,800 1,620 Climbing Atlanta Center
11:17AM 33.7539 -85.3531 283° West 381 438 18,300 1,500 Climbing Atlanta Center
11:18AM 33.7797 -85.4758 284° West 381 438 19,900 1,500 Climbing Atlanta Center
11:19AM 33.8094 -85.6064 285° West 388 447 21,300 1,020 Climbing Atlanta Center
11:20AM 33.8472 -85.7347 290° West 403 464 22,000 300 Climbing Atlanta Center
11:21AM 33.8997 -85.8633 296° West 415 478 22,000  Level Atlanta Center
11:22AM 33.9497 -86.0022 293° West 429 494 22,000  Level Atlanta Center
11:23AM 34.0400 -86.1044 317° Northwest 441 507 22,000 -1,500 Level Atlanta Center
11:26AM 34.2639 -86.2708 328° Northwest 435 501 17,100 -2,460 Descending Memphis Center
11:27AM 34.3683 -86.3311 335° Northwest 415 478 14,000 -2,760 Descending Memphis Center
11:28AM 34.4639 -86.3872 334° Northwest 400 460 11,600 -1,800 Descending Memphis Center
11:29AM 34.5494 -86.4564 326° Northwest 365 420 10,400 -1,380 Descending Memphis Center
11:30AM 34.6200 -86.5036 331° Northwest 325 374 8,900 -2,160 Descending Memphis Center
11:31AM 34.6842 -86.5586 325° Northwest 292 336 6,100 -2,220 Descending Memphis Center
11:32AM 34.7461 -86.6089 326° Northwest 280 322 4,500 -1,140 Descending Memphis Center
11:33AM 34.8058 -86.6519 329° Northwest 264 304 3,900 -600 Descending Memphis Center
11:34AM 34.8347 -86.7114 301° West 214 246 3,400 -540 Descending Memphis Center
11:35AM 34.8069 -86.7606 235° Southwest 147 169 2,900 -480 Descending Memphis Center
11:36AM 34.7550 -86.7628 182° South 132 152 2,500 -660 Descending Memphis Center
11:37AM 34.7069 -86.7647 182° South 152 175 1,600 -900 Descending Memphis Center
11:38AM 34.6675 -86.7664 182° South 152 175 800  Descending Memphis Center
11:39AM 34.6647 -86.8144 266° West 152 175 1,700 120 Climbing Memphis Center
11:40AM 34.6806 -86.7886 53° Northeast 75 86 1,100 -600 Descending Memphis Center
11:42AM 34.6333 -86.7667 209° Southwest  Level FlightAware Approximate